sensor_id;sensor_type;location;lat;lon;timestamp;pressure;altitude;pressure_sealevel;temperature;humidity
79481;BME280;68944;48.262;14.208;2023-04-24T00:02:07;97313.72;;;14.39;64.02
79481;BME280;68944;48.262;14.208;2023-04-24T00:04:37;97333.97;;;14.50;63.82
79481;BME280;68944;48.262;14.208;2023-04-24T00:07:06;97321.72;;;14.39;64.94
79481;BME280;68944;48.262;14.208;2023-04-24T00:09:33;97323.59;;;14.33;65.18
79481;BME280;68944;48.262;14.208;2023-04-24T00:11:58;97328.38;;;14.31;65.35
79481;BME280;68944;48.262;14.208;2023-04-24T00:14:24;97331.06;;;14.36;65.64
79481;BME280;68944;48.262;14.208;2023-04-24T00:16:49;97315.59;;;14.33;65.78
79481;BME280;68944;48.262;14.208;2023-04-24T00:19:15;97332.69;;;14.16;66.35
79481;BME280;68944;48.262;14.208;2023-04-24T00:21:41;97322.00;;;14.27;66.59
79481;BME280;68944;48.262;14.208;2023-04-24T00:24:07;97317.47;;;14.17;66.36
79481;BME280;68944;48.262;14.208;2023-04-24T00:26:34;97318.25;;;14.38;66.27
79481;BME280;68944;48.262;14.208;2023-04-24T00:29:00;97332.13;;;14.30;66.58
79481;BME280;68944;48.262;14.208;2023-04-24T00:31:26;97334.53;;;14.31;66.83
79481;BME280;68944;48.262;14.208;2023-04-24T00:33:51;97323.06;;;14.36;66.34
79481;BME280;68944;48.262;14.208;2023-04-24T00:36:17;97328.88;;;14.59;65.74
79481;BME280;68944;48.262;14.208;2023-04-24T00:38:44;97324.63;;;14.53;66.37
79481;BME280;68944;48.262;14.208;2023-04-24T00:41:10;97327.59;;;14.20;67.61
79481;BME280;68944;48.262;14.208;2023-04-24T00:43:36;97321.75;;;14.23;67.22
79481;BME280;68944;48.262;14.208;2023-04-24T00:46:02;97328.13;;;14.32;67.39
79481;BME280;68944;48.262;14.208;2023-04-24T00:48:27;97312.44;;;14.20;67.86
79481;BME280;68944;48.262;14.208;2023-04-24T00:50:53;97314.56;;;14.18;68.21
79481;BME280;68944;48.262;14.208;2023-04-24T00:53:19;97318.53;;;14.31;67.55
79481;BME280;68944;48.262;14.208;2023-04-24T00:55:45;97309.75;;;14.20;67.72
79481;BME280;68944;48.262;14.208;2023-04-24T00:58:12;97315.63;;;14.02;68.39
79481;BME280;68944;48.262;14.208;2023-04-24T01:00:38;97322.03;;;14.11;68.25
79481;BME280;68944;48.262;14.208;2023-04-24T01:03:04;97322.03;;;13.95;69.08
79481;BME280;68944;48.262;14.208;2023-04-24T01:05:32;97324.69;;;14.01;68.60
79481;BME280;68944;48.262;14.208;2023-04-24T01:07:58;97307.13;;;13.79;68.84
79481;BME280;68944;48.262;14.208;2023-04-24T01:10:25;97320.69;;;13.93;68.61
79481;BME280;68944;48.262;14.208;2023-04-24T01:12:52;97320.16;;;14.12;68.36
79481;BME280;68944;48.262;14.208;2023-04-24T01:15:18;97317.50;;;13.91;68.84
79481;BME280;68944;48.262;14.208;2023-04-24T01:17:45;97327.88;;;13.71;70.50
79481;BME280;68944;48.262;14.208;2023-04-24T01:20:13;97319.59;;;13.73;70.20
79481;BME280;68944;48.262;14.208;2023-04-24T01:22:40;97331.59;;;13.60;71.44
79481;BME280;68944;48.262;14.208;2023-04-24T01:25:06;97332.13;;;13.67;71.56
79481;BME280;68944;48.262;14.208;2023-04-24T01:27:32;97338.00;;;13.85;70.76
79481;BME280;68944;48.262;14.208;2023-04-24T01:29:58;97323.06;;;13.68;71.08
79481;BME280;68944;48.262;14.208;2023-04-24T01:32:24;97331.88;;;13.74;71.21
79481;BME280;68944;48.262;14.208;2023-04-24T01:34:50;97328.06;;;13.54;71.69
79481;BME280;68944;48.262;14.208;2023-04-24T01:37:15;97336.09;;;13.59;71.63
79481;BME280;68944;48.262;14.208;2023-04-24T01:39:43;97341.38;;;13.54;72.17
79481;BME280;68944;48.262;14.208;2023-04-24T01:42:09;97338.78;;;13.64;71.68
79481;BME280;68944;48.262;14.208;2023-04-24T01:44:34;97330.50;;;13.56;71.61
79481;BME280;68944;48.262;14.208;2023-04-24T01:47:02;97337.16;;;13.63;71.61
79481;BME280;68944;48.262;14.208;2023-04-24T01:49:29;97332.66;;;13.69;71.08
79481;BME280;68944;48.262;14.208;2023-04-24T01:51:54;97322.56;;;13.76;70.94
79481;BME280;68944;48.262;14.208;2023-04-24T01:54:20;97325.22;;;13.76;71.09
79481;BME280;68944;48.262;14.208;2023-04-24T01:56:46;97329.19;;;13.69;71.39
79481;BME280;68944;48.262;14.208;2023-04-24T01:59:12;97332.69;;;13.74;70.94
79481;BME280;68944;48.262;14.208;2023-04-24T02:01:38;97331.84;;;13.63;70.92
79481;BME280;68944;48.262;14.208;2023-04-24T02:04:05;97336.84;;;13.54;71.58
79481;BME280;68944;48.262;14.208;2023-04-24T02:06:31;97318.56;;;13.58;70.99
79481;BME280;68944;48.262;14.208;2023-04-24T02:09:00;97325.22;;;13.61;71.56
79481;BME280;68944;48.262;14.208;2023-04-24T02:11:26;97324.38;;;13.65;71.28
79481;BME280;68944;48.262;14.208;2023-04-24T02:13:52;97326.25;;;13.60;71.19
79481;BME280;68944;48.262;14.208;2023-04-24T02:16:18;97332.63;;;13.59;71.89
79481;BME280;68944;48.262;14.208;2023-04-24T02:18:43;97317.16;;;13.40;72.20
79481;BME280;68944;48.262;14.208;2023-04-24T02:21:09;97323.00;;;13.47;71.78
79481;BME280;68944;48.262;14.208;2023-04-24T02:23:35;97315.81;;;13.48;72.16
79481;BME280;68944;48.262;14.208;2023-04-24T02:26:00;97318.22;;;13.54;71.15
79481;BME280;68944;48.262;14.208;2023-04-24T02:28:26;97299.91;;;13.58;71.88
79481;BME280;68944;48.262;14.208;2023-04-24T02:30:51;97327.88;;;13.71;71.31
79481;BME280;68944;48.262;14.208;2023-04-24T02:33:19;97314.81;;;13.75;70.99
79481;BME280;68944;48.262;14.208;2023-04-24T02:35:45;97314.28;;;13.73;71.10
79481;BME280;68944;48.262;14.208;2023-04-24T02:38:11;97310.56;;;13.69;71.26
79481;BME280;68944;48.262;14.208;2023-04-24T02:40:36;97319.06;;;13.65;71.48
79481;BME280;68944;48.262;14.208;2023-04-24T02:43:02;97322.53;;;13.61;71.99
79481;BME280;68944;48.262;14.208;2023-04-24T02:45:27;97303.63;;;13.57;71.47
79481;BME280;68944;48.262;14.208;2023-04-24T02:47:53;97314.00;;;13.53;71.91
79481;BME280;68944;48.262;14.208;2023-04-24T02:50:18;97317.16;;;13.40;71.83
79481;BME280;68944;48.262;14.208;2023-04-24T02:52:44;97315.00;;;13.31;72.09
79481;BME280;68944;48.262;14.208;2023-04-24T02:55:10;97317.38;;;13.33;72.84
79481;BME280;68944;48.262;14.208;2023-04-24T02:57:35;97305.97;;;13.33;72.32
79481;BME280;68944;48.262;14.208;2023-04-24T03:00:01;97287.31;;;13.27;72.26
79481;BME280;68944;48.262;14.208;2023-04-24T03:02:27;97304.91;;;13.49;71.95
79481;BME280;68944;48.262;14.208;2023-04-24T03:04:52;97295.88;;;13.50;71.96
79481;BME280;68944;48.262;14.208;2023-04-24T03:07:19;97304.44;;;13.63;71.65
79481;BME280;68944;48.262;14.208;2023-04-24T03:09:46;97297.78;;;13.65;71.39
79481;BME280;68944;48.262;14.208;2023-04-24T03:12:14;97302.06;;;13.77;71.43
79481;BME280;68944;48.262;14.208;2023-04-24T03:14:39;97289.00;;;13.70;70.88
79481;BME280;68944;48.262;14.208;2023-04-24T03:17:05;97281.81;;;13.76;70.50
79481;BME280;68944;48.262;14.208;2023-04-24T03:19:30;97292.72;;;13.80;70.98
79481;BME280;68944;48.262;14.208;2023-04-24T03:22:02;97285.53;;;13.80;70.99
79481;BME280;68944;48.262;14.208;2023-04-24T03:24:29;97290.34;;;13.88;70.68
79481;BME280;68944;48.262;14.208;2023-04-24T03:26:56;97297.53;;;13.93;70.78
79481;BME280;68944;48.262;14.208;2023-04-24T03:29:41;97285.53;;;14.01;70.56
79481;BME280;68944;48.262;14.208;2023-04-24T03:32:07;97283.16;;;14.05;70.09
79481;BME280;68944;48.262;14.208;2023-04-24T03:34:34;97281.28;;;14.05;70.20
79481;BME280;68944;48.262;14.208;2023-04-24T03:37:00;97286.34;;;14.07;70.03
79481;BME280;68944;48.262;14.208;2023-04-24T03:39:26;97295.13;;;14.13;69.71
79481;BME280;68944;48.262;14.208;2023-04-24T03:41:54;97288.47;;;13.99;69.47
79481;BME280;68944;48.262;14.208;2023-04-24T03:44:25;97300.72;;;13.90;70.17
79481;BME280;68944;48.262;14.208;2023-04-24T03:46:51;97304.19;;;13.91;70.77
79481;BME280;68944;48.262;14.208;2023-04-24T03:49:19;97297.00;;;13.86;70.54
79481;BME280;68944;48.262;14.208;2023-04-24T03:51:46;97292.75;;;13.90;70.50
79481;BME280;68944;48.262;14.208;2023-04-24T03:54:30;97295.69;;;13.88;70.87
79481;BME280;68944;48.262;14.208;2023-04-24T03:56:55;97302.34;;;13.86;70.60
79481;BME280;68944;48.262;14.208;2023-04-24T03:59:22;97299.13;;;13.73;70.97
79481;BME280;68944;48.262;14.208;2023-04-24T04:01:59;97318.03;;;13.72;71.43
79481;BME280;68944;48.262;14.208;2023-04-24T04:04:25;97297.78;;;13.60;72.03
79481;BME280;68944;48.262;14.208;2023-04-24T04:06:50;97311.91;;;13.61;71.79
79481;BME280;68944;48.262;14.208;2023-04-24T04:09:16;97307.63;;;13.75;71.19
79481;BME280;68944;48.262;14.208;2023-04-24T04:11:42;97318.28;;;13.96;71.03
79481;BME280;68944;48.262;14.208;2023-04-24T04:14:07;97310.84;;;13.98;70.79
79481;BME280;68944;48.262;14.208;2023-04-24T04:16:35;97312.97;;;14.07;69.73
79481;BME280;68944;48.262;14.208;2023-04-24T04:19:02;97319.06;;;14.28;69.26
79481;BME280;68944;48.262;14.208;2023-04-24T04:21:28;97317.19;;;14.24;68.53
79481;BME280;68944;48.262;14.208;2023-04-24T04:24:04;97327.34;;;14.16;68.03
79481;BME280;68944;48.262;14.208;2023-04-24T04:26:35;97315.09;;;14.15;68.25
79481;BME280;68944;48.262;14.208;2023-04-24T04:29:07;97330.53;;;14.18;67.88
79481;BME280;68944;48.262;14.208;2023-04-24T04:31:37;97325.75;;;13.89;68.69
79481;BME280;68944;48.262;14.208;2023-04-24T04:34:07;97327.34;;;13.85;68.53
79481;BME280;68944;48.262;14.208;2023-04-24T04:36:33;97324.44;;;13.81;68.54
79481;BME280;68944;48.262;14.208;2023-04-24T04:39:11;97325.47;;;13.80;68.68
79481;BME280;68944;48.262;14.208;2023-04-24T04:41:49;97329.50;;;13.88;68.62
79481;BME280;68944;48.262;14.208;2023-04-24T04:44:17;97332.41;;;13.92;68.73
79481;BME280;68944;48.262;14.208;2023-04-24T04:46:43;97329.47;;;13.83;69.13
79481;BME280;68944;48.262;14.208;2023-04-24T04:49:20;97330.53;;;13.87;69.17
79481;BME280;68944;48.262;14.208;2023-04-24T04:51:47;97322.03;;;13.85;68.67
79481;BME280;68944;48.262;14.208;2023-04-24T04:54:12;97338.28;;;14.04;68.45
79481;BME280;68944;48.262;14.208;2023-04-24T04:56:38;97332.13;;;13.98;68.35
79481;BME280;68944;48.262;14.208;2023-04-24T04:59:04;97339.88;;;13.79;69.15
79481;BME280;68944;48.262;14.208;2023-04-24T05:01:29;97336.13;;;13.70;69.20
79481;BME280;68944;48.262;14.208;2023-04-24T05:03:55;97348.38;;;13.81;69.30
79481;BME280;68944;48.262;14.208;2023-04-24T05:06:21;97337.94;;;13.53;69.27
79481;BME280;68944;48.262;14.208;2023-04-24T05:08:46;97346.22;;;13.62;68.89
79481;BME280;68944;48.262;14.208;2023-04-24T05:11:35;97348.09;;;13.67;69.47
79481;BME280;68944;48.262;14.208;2023-04-24T05:14:01;97349.69;;;13.73;69.64
79481;BME280;68944;48.262;14.208;2023-04-24T05:16:34;97356.91;;;13.83;69.20
79481;BME280;68944;48.262;14.208;2023-04-24T05:19:00;97351.25;;;13.59;69.11
79481;BME280;68944;48.262;14.208;2023-04-24T05:21:30;97359.22;;;13.53;69.12
79481;BME280;68944;48.262;14.208;2023-04-24T05:23:56;97356.53;;;13.48;69.19
79481;BME280;68944;48.262;14.208;2023-04-24T05:26:42;97363.94;;;13.36;69.31
79481;BME280;68944;48.262;14.208;2023-04-24T05:29:08;97367.13;;;13.38;69.34
79481;BME280;68944;48.262;14.208;2023-04-24T05:31:34;97364.50;;;13.43;68.73
79481;BME280;68944;48.262;14.208;2023-04-24T05:34:00;97367.13;;;13.38;68.64
79481;BME280;68944;48.262;14.208;2023-04-24T05:36:25;97371.44;;;13.44;68.76
79481;BME280;68944;48.262;14.208;2023-04-24T05:38:52;97373.00;;;13.35;68.09
79481;BME280;68944;48.262;14.208;2023-04-24T05:41:17;97377.50;;;13.34;68.35
79481;BME280;68944;48.262;14.208;2023-04-24T05:43:43;97380.13;;;13.18;68.79
79481;BME280;68944;48.262;14.208;2023-04-24T05:46:08;97376.56;;;12.97;69.37
79481;BME280;68944;48.262;14.208;2023-04-24T05:48:34;97373.84;;;12.81;70.10
79481;BME280;68944;48.262;14.208;2023-04-24T05:51:02;97382.31;;;12.78;70.72
79481;BME280;68944;48.262;14.208;2023-04-24T05:53:27;97379.69;;;12.83;70.77
79481;BME280;68944;48.262;14.208;2023-04-24T05:55:54;97367.56;;;12.55;71.47
79481;BME280;68944;48.262;14.208;2023-04-24T05:58:19;97386.56;;;12.74;71.42
79481;BME280;68944;48.262;14.208;2023-04-24T06:00:46;97392.72;;;12.85;71.06
79481;BME280;68944;48.262;14.208;2023-04-24T06:03:12;97384.53;;;12.97;71.04
79481;BME280;68944;48.262;14.208;2023-04-24T06:05:37;97384.78;;;12.90;71.14
79481;BME280;68944;48.262;14.208;2023-04-24T06:08:03;97388.00;;;12.97;70.60
79481;BME280;68944;48.262;14.208;2023-04-24T06:10:35;97380.31;;;13.01;70.46
79481;BME280;68944;48.262;14.208;2023-04-24T06:13:01;97386.66;;;12.95;70.30
79481;BME280;68944;48.262;14.208;2023-04-24T06:15:31;97383.97;;;12.90;70.59
79481;BME280;68944;48.262;14.208;2023-04-24T06:18:00;97394.03;;;12.82;70.61
79481;BME280;68944;48.262;14.208;2023-04-24T06:20:25;97394.53;;;12.74;70.98
79481;BME280;68944;48.262;14.208;2023-04-24T06:22:51;97395.03;;;12.71;71.50
79481;BME280;68944;48.262;14.208;2023-04-24T06:25:20;97394.28;;;12.81;71.30
79481;BME280;68944;48.262;14.208;2023-04-24T06:27:45;97390.88;;;12.85;70.87
79481;BME280;68944;48.262;14.208;2023-04-24T06:30:11;97398.38;;;12.99;70.87
79481;BME280;68944;48.262;14.208;2023-04-24T06:32:37;97391.78;;;13.07;70.26
79481;BME280;68944;48.262;14.208;2023-04-24T06:35:03;97381.91;;;13.02;70.43
79481;BME280;68944;48.262;14.208;2023-04-24T06:37:29;97394.47;;;13.17;70.31
79481;BME280;68944;48.262;14.208;2023-04-24T06:39:55;97408.63;;;13.34;70.16
79481;BME280;68944;48.262;14.208;2023-04-24T06:42:20;97400.06;;;13.16;69.73
79481;BME280;68944;48.262;14.208;2023-04-24T06:44:48;97410.72;;;13.21;69.90
79481;BME280;68944;48.262;14.208;2023-04-24T06:47:14;97406.66;;;13.08;70.79
79481;BME280;68944;48.262;14.208;2023-04-24T06:49:40;97406.97;;;13.12;70.51
79481;BME280;68944;48.262;14.208;2023-04-24T06:52:05;97413.84;;;13.13;70.37
79481;BME280;68944;48.262;14.208;2023-04-24T06:54:32;97410.66;;;13.11;70.39
79481;BME280;68944;48.262;14.208;2023-04-24T06:56:58;97409.63;;;13.17;70.66
79481;BME280;68944;48.262;14.208;2023-04-24T06:59:24;97420.31;;;13.27;70.28
79481;BME280;68944;48.262;14.208;2023-04-24T07:01:50;97413.63;;;13.19;70.58
79481;BME280;68944;48.262;14.208;2023-04-24T07:04:19;97419.25;;;13.23;70.24
79481;BME280;68944;48.262;14.208;2023-04-24T07:06:48;97423.97;;;13.11;70.44
79481;BME280;68944;48.262;14.208;2023-04-24T07:09:15;97422.38;;;13.10;71.28
79481;BME280;68944;48.262;14.208;2023-04-24T07:11:41;97419.28;;;13.28;70.88
79481;BME280;68944;48.262;14.208;2023-04-24T07:14:07;97416.31;;;13.25;70.83
79481;BME280;68944;48.262;14.208;2023-04-24T07:16:33;97428.03;;;13.24;70.42
79481;BME280;68944;48.262;14.208;2023-04-24T07:18:58;97423.44;;;13.14;70.65
79481;BME280;68944;48.262;14.208;2023-04-24T07:21:24;97420.75;;;13.08;70.61
79481;BME280;68944;48.262;14.208;2023-04-24T07:23:50;97409.16;;;12.77;71.56
79481;BME280;68944;48.262;14.208;2023-04-24T07:26:16;97422.94;;;12.73;71.71
79481;BME280;68944;48.262;14.208;2023-04-24T07:28:42;97416.91;;;12.83;71.85
79481;BME280;68944;48.262;14.208;2023-04-24T07:31:08;97421.69;;;12.81;72.27
79481;BME280;68944;48.262;14.208;2023-04-24T07:33:33;97420.16;;;12.96;71.58
79481;BME280;68944;48.262;14.208;2023-04-24T07:35:59;97420.97;;;12.96;71.29
79481;BME280;68944;48.262;14.208;2023-04-24T07:38:25;97421.84;;;13.07;71.56
79481;BME280;68944;48.262;14.208;2023-04-24T07:40:51;97410.72;;;13.21;71.48
79481;BME280;68944;48.262;14.208;2023-04-24T07:43:19;97422.47;;;13.36;71.15
79481;BME280;68944;48.262;14.208;2023-04-24T07:45:46;97410.81;;;13.42;70.24
79481;BME280;68944;48.262;14.208;2023-04-24T07:48:12;97427.03;;;13.46;70.72
79481;BME280;68944;48.262;14.208;2023-04-24T07:50:40;97424.38;;;13.46;70.84
79481;BME280;68944;48.262;14.208;2023-04-24T07:53:05;97430.44;;;13.30;71.02
79481;BME280;68944;48.262;14.208;2023-04-24T07:55:31;97432.03;;;13.31;70.34
79481;BME280;68944;48.262;14.208;2023-04-24T07:57:56;97429.44;;;13.42;71.12
79481;BME280;68944;48.262;14.208;2023-04-24T08:00:22;97419.56;;;13.37;71.56
79481;BME280;68944;48.262;14.208;2023-04-24T08:02:47;97436.09;;;13.50;71.49
79481;BME280;68944;48.262;14.208;2023-04-24T08:05:13;97423.56;;;13.45;71.42
79481;BME280;68944;48.262;14.208;2023-04-24T08:07:38;97431.22;;;13.26;70.98
79481;BME280;68944;48.262;14.208;2023-04-24T08:10:05;97438.72;;;13.39;70.74
79481;BME280;68944;48.262;14.208;2023-04-24T08:12:31;97420.31;;;13.27;70.90
79481;BME280;68944;48.262;14.208;2023-04-24T08:14:56;97439.47;;;13.29;70.86
79481;BME280;68944;48.262;14.208;2023-04-24T08:17:22;97440.84;;;13.37;70.61
79481;BME280;68944;48.262;14.208;2023-04-24T08:19:47;97450.13;;;13.29;70.59
79481;BME280;68944;48.262;14.208;2023-04-24T08:22:14;97453.00;;;13.23;71.40
79481;BME280;68944;48.262;14.208;2023-04-24T08:24:40;97450.09;;;13.19;71.04
79481;BME280;68944;48.262;14.208;2023-04-24T08:27:05;97454.31;;;13.20;71.33
79481;BME280;68944;48.262;14.208;2023-04-24T08:29:31;97440.53;;;13.23;71.33
79481;BME280;68944;48.262;14.208;2023-04-24T08:31:57;97454.16;;;13.37;71.25
79481;BME280;68944;48.262;14.208;2023-04-24T08:34:22;97458.63;;;13.31;71.48
79481;BME280;68944;48.262;14.208;2023-04-24T08:36:48;97452.88;;;13.50;70.58
79481;BME280;68944;48.262;14.208;2023-04-24T08:39:14;97456.16;;;13.63;70.84
79481;BME280;68944;48.262;14.208;2023-04-24T08:41:44;97453.50;;;13.73;70.15
79481;BME280;68944;48.262;14.208;2023-04-24T08:44:11;97445.81;;;13.87;69.55
79481;BME280;68944;48.262;14.208;2023-04-24T08:46:37;97449.84;;;14.01;69.50
79481;BME280;68944;48.262;14.208;2023-04-24T08:49:03;97454.13;;;14.17;68.82
79481;BME280;68944;48.262;14.208;2023-04-24T08:51:29;97446.44;;;14.21;68.57
79481;BME280;68944;48.262;14.208;2023-04-24T08:53:55;97455.75;;;14.18;67.48
79481;BME280;68944;48.262;14.208;2023-04-24T08:56:22;97456.19;;;13.89;68.08
79481;BME280;68944;48.262;14.208;2023-04-24T08:58:50;97461.56;;;14.10;68.73
79481;BME280;68944;48.262;14.208;2023-04-24T09:01:18;97456.28;;;14.20;68.85
79481;BME280;68944;48.262;14.208;2023-04-24T09:03:45;97462.41;;;14.31;68.00
79481;BME280;68944;48.262;14.208;2023-04-24T09:06:11;97464.81;;;14.43;68.60
79481;BME280;68944;48.262;14.208;2023-04-24T09:08:39;97462.94;;;14.60;68.35
79481;BME280;68944;48.262;14.208;2023-04-24T09:11:08;97457.63;;;14.65;67.91
79481;BME280;68944;48.262;14.208;2023-04-24T09:13:34;97448.53;;;14.61;68.28
79481;BME280;68944;48.262;14.208;2023-04-24T09:15:59;97458.13;;;14.56;67.55
79481;BME280;68944;48.262;14.208;2023-04-24T09:18:26;97468.56;;;14.37;67.66
79481;BME280;68944;48.262;14.208;2023-04-24T09:21:02;97465.06;;;14.37;68.01
79481;BME280;68944;48.262;14.208;2023-04-24T09:23:30;97467.22;;;14.35;68.39
79481;BME280;68944;48.262;14.208;2023-04-24T09:25:56;97455.75;;;14.39;68.34
79481;BME280;68944;48.262;14.208;2023-04-24T09:28:29;97468.81;;;14.30;68.61
79481;BME280;68944;48.262;14.208;2023-04-24T09:31:18;97459.19;;;14.29;68.51
79481;BME280;68944;48.262;14.208;2023-04-24T09:34:03;97461.59;;;14.31;68.75
79481;BME280;68944;48.262;14.208;2023-04-24T09:36:32;97460.53;;;14.21;68.35
79481;BME280;68944;48.262;14.208;2023-04-24T09:39:02;97447.19;;;14.11;69.05
79481;BME280;68944;48.262;14.208;2023-04-24T09:41:29;97455.47;;;14.20;69.10
79481;BME280;68944;48.262;14.208;2023-04-24T09:43:55;97463.47;;;14.20;68.65
79481;BME280;68944;48.262;14.208;2023-04-24T09:46:29;97451.22;;;14.14;68.24
79481;BME280;68944;48.262;14.208;2023-04-24T09:48:56;97459.16;;;13.93;68.19
79481;BME280;68944;48.262;14.208;2023-04-24T09:51:34;97463.41;;;13.88;67.88
79481;BME280;68944;48.262;14.208;2023-04-24T09:54:00;97460.50;;;14.01;68.51
79481;BME280;68944;48.262;14.208;2023-04-24T09:56:26;97449.84;;;14.01;68.69
79481;BME280;68944;48.262;14.208;2023-04-24T09:58:52;97445.88;;;14.14;68.83
79481;BME280;68944;48.262;14.208;2023-04-24T10:01:32;97459.75;;;14.37;68.38
79481;BME280;68944;48.262;14.208;2023-04-24T10:03:58;97445.06;;;14.44;68.23
79481;BME280;68944;48.262;14.208;2023-04-24T10:06:31;97439.75;;;14.55;67.84
79481;BME280;68944;48.262;14.208;2023-04-24T10:08:57;97456.00;;;14.69;66.78
79481;BME280;68944;48.262;14.208;2023-04-24T10:11:26;97442.41;;;14.71;67.29
79481;BME280;68944;48.262;14.208;2023-04-24T10:13:52;97450.94;;;14.78;66.70
79481;BME280;68944;48.262;14.208;2023-04-24T10:16:18;97454.69;;;14.72;66.60
79481;BME280;68944;48.262;14.208;2023-04-24T10:18:46;97457.88;;;14.74;67.17
79481;BME280;68944;48.262;14.208;2023-04-24T10:21:13;97456.81;;;14.70;66.51
79481;BME280;68944;48.262;14.208;2023-04-24T10:23:39;97454.16;;;14.64;66.77
79481;BME280;68944;48.262;14.208;2023-04-24T10:26:06;97459.75;;;14.73;66.30
79481;BME280;68944;48.262;14.208;2023-04-24T10:28:36;97451.19;;;14.82;66.01
79481;BME280;68944;48.262;14.208;2023-04-24T10:31:02;97461.06;;;14.65;65.59
79481;BME280;68944;48.262;14.208;2023-04-24T10:33:29;97453.63;;;14.47;65.21
79481;BME280;68944;48.262;14.208;2023-04-24T10:35:56;97460.78;;;14.51;66.11
79481;BME280;68944;48.262;14.208;2023-04-24T10:38:25;97446.16;;;14.43;65.40
79481;BME280;68944;48.262;14.208;2023-04-24T10:41:18;97452.00;;;14.61;66.15
79481;BME280;68944;48.262;14.208;2023-04-24T10:43:45;97438.41;;;14.78;65.91
79481;BME280;68944;48.262;14.208;2023-04-24T10:46:18;97448.22;;;15.09;65.88
79481;BME280;68944;48.262;14.208;2023-04-24T10:48:53;97446.28;;;15.41;64.14
79481;BME280;68944;48.262;14.208;2023-04-24T10:51:22;97446.00;;;15.43;62.18
79481;BME280;68944;48.262;14.208;2023-04-24T10:53:50;97429.03;;;15.12;63.19
79481;BME280;68944;48.262;14.208;2023-04-24T10:56:16;97429.59;;;14.88;64.09
79481;BME280;68944;48.262;14.208;2023-04-24T10:58:42;97433.31;;;14.82;64.87
79481;BME280;68944;48.262;14.208;2023-04-24T11:01:37;97427.22;;;14.61;65.64
79481;BME280;68944;48.262;14.208;2023-04-24T11:04:03;97432.81;;;14.59;65.49
79481;BME280;68944;48.262;14.208;2023-04-24T11:06:36;97427.75;;;14.78;65.62
79481;BME280;68944;48.262;14.208;2023-04-24T11:09:09;97423.16;;;15.16;65.27
79481;BME280;68944;48.262;14.208;2023-04-24T11:11:38;97411.44;;;15.11;63.81
79481;BME280;68944;48.262;14.208;2023-04-24T11:14:09;97423.97;;;15.16;64.41
79481;BME280;68944;48.262;14.208;2023-04-24T11:16:42;97421.06;;;15.02;63.60
79481;BME280;68944;48.262;14.208;2023-04-24T11:21:46;97421.59;;;15.65;63.77
79481;BME280;68944;48.262;14.208;2023-04-24T11:27:05;97422.06;;;16.23;62.63
79481;BME280;68944;48.262;14.208;2023-04-24T11:34:58;97415.91;;;16.58;60.36
79481;BME280;68944;48.262;14.208;2023-04-24T11:37:26;97409.75;;;16.87;60.53
79481;BME280;68944;48.262;14.208;2023-04-24T11:39:53;97416.25;;;17.05;58.61
79481;BME280;68944;48.262;14.208;2023-04-24T11:42:20;97421.69;;;16.95;58.84
79481;BME280;68944;48.262;14.208;2023-04-24T11:44:46;97416.16;;;16.86;58.21
79481;BME280;68944;48.262;14.208;2023-04-24T11:47:12;97419.81;;;16.71;59.36
79481;BME280;68944;48.262;14.208;2023-04-24T11:49:38;97406.28;;;16.57;58.43
79481;BME280;68944;48.262;14.208;2023-04-24T11:52:04;97413.28;;;16.53;58.58
79481;BME280;68944;48.262;14.208;2023-04-24T11:54:30;97419.03;;;16.65;59.48
79481;BME280;68944;48.262;14.208;2023-04-24T11:56:56;97413.59;;;16.76;58.73
79481;BME280;68944;48.262;14.208;2023-04-24T11:59:22;97418.22;;;16.94;59.43
79481;BME280;68944;48.262;14.208;2023-04-24T12:01:48;97427.75;;;17.06;57.96
79481;BME280;68944;48.262;14.208;2023-04-24T12:04:16;97430.06;;;17.13;58.97
79481;BME280;68944;48.262;14.208;2023-04-24T12:07:02;97428.81;;;17.29;60.56
79481;BME280;68944;48.262;14.208;2023-04-24T12:09:29;97434.03;;;17.21;60.08
79481;BME280;68944;48.262;14.208;2023-04-24T12:11:55;97445.38;;;17.07;60.13
79481;BME280;68944;48.262;14.208;2023-04-24T12:14:22;97454.50;;;16.46;59.23
79481;BME280;68944;48.262;14.208;2023-04-24T12:16:51;97468.38;;;15.52;58.97
79481;BME280;68944;48.262;14.208;2023-04-24T12:19:23;97488.53;;;14.50;62.13
79481;BME280;68944;48.262;14.208;2023-04-24T12:22:21;97498.50;;;13.70;65.10
79481;BME280;68944;48.262;14.208;2023-04-24T12:25:03;97496.84;;;13.10;66.41
79481;BME280;68944;48.262;14.208;2023-04-24T12:27:33;97488.19;;;12.92;66.79
79481;BME280;68944;48.262;14.208;2023-04-24T12:30:00;97473.84;;;12.93;66.81
79481;BME280;68944;48.262;14.208;2023-04-24T12:32:26;97483.09;;;12.85;67.71
79481;BME280;68944;48.262;14.208;2023-04-24T12:34:53;97479.75;;;13.00;67.85
79481;BME280;68944;48.262;14.208;2023-04-24T12:37:18;97494.56;;;12.91;68.63
79481;BME280;68944;48.262;14.208;2023-04-24T12:42:27;97478.75;;;12.35;67.56
79481;BME280;68944;48.262;14.208;2023-04-24T12:44:56;97480.66;;;12.45;67.81
79481;BME280;68944;48.262;14.208;2023-04-24T12:47:23;97508.91;;;12.57;67.58
79481;BME280;68944;48.262;14.208;2023-04-24T12:49:49;97499.16;;;12.62;67.94
79481;BME280;68944;48.262;14.208;2023-04-24T12:52:23;97484.84;;;12.69;67.21
79481;BME280;68944;48.262;14.208;2023-04-24T12:54:50;97481.41;;;12.73;66.61
79481;BME280;68944;48.262;14.208;2023-04-24T12:57:17;97498.59;;;12.99;66.33
79481;BME280;68944;48.262;14.208;2023-04-24T12:59:43;97507.97;;;13.06;64.88
79481;BME280;68944;48.262;14.208;2023-04-24T13:02:09;97501.97;;;13.27;65.03
79481;BME280;68944;48.262;14.208;2023-04-24T13:04:35;97496.41;;;13.28;64.19
79481;BME280;68944;48.262;14.208;2023-04-24T13:07:01;97488.50;;;13.44;63.83